This is the latest recevied weather packets stored in our database for station/object G6FCI. If no packets are shown the sender has not sent any weather packets the latest 10 day(s).
| Time | Temp. | Humidity | Pressure | Rain* | Wind** | Luminosity | Snow |
|---|---|---|---|---|---|---|---|
| 1776908703 | 5.56° C | 73% | 1030.8 hPa | 0 mm | - | - | - |
| 1776907084 | 6.11° C | 74% | 1030.5 hPa | 0 mm | - | - | - |
| 1776905664 | 6.11° C | 75% | 1030.5 hPa | 0 mm | - | - | - |
| 1776905103 | 6.11° C | 75% | 1030.4 hPa | 0 mm | - | - | - |
| 1776903483 | 6.67° C | 77% | 1030.2 hPa | 0 mm | - | - | - |
| 1776902943 | 6.67° C | 75% | 1030.2 hPa | 0 mm | - | - | - |
| 1776900963 | 6.11° C | 80% | 1030.1 hPa | 0 mm | - | - | - |
| 1776900423 | 6.67° C | 80% | 1030.1 hPa | 0 mm | - | - | - |
| 1776895743 | 7.78° C | 86% | 1029.6 hPa | 0 mm | - | - | - |
| 1776895203 | 7.78° C | 86% | 1029.6 hPa | 0 mm | - | - | - |
| 1776891603 | 8.89° C | 86% | 1029.3 hPa | 0 mm | - | - | - |
| 1776891243 | 8.89° C | 86% | 1029.3 hPa | 0 mm | - | - | - |
| 1776890163 | 9.44° C | 86% | 1029.4 hPa | 0 mm | - | - | - |
| 1776885504 | 11.11° C | 83% | 1028.6 hPa | 0 mm | - | - | - |
| 1776884943 | 11.11° C | 81% | 1028.4 hPa | 0 mm | - | - | - |
| 1776884403 | 11.67° C | 82% | 1028.4 hPa | 0 mm | - | - | - |
| 1776882963 | 12.22° C | 81% | 1028.3 hPa | 0 mm | - | - | - |
| 1776881883 | 12.78° C | 74% | 1028 hPa | 0 mm | - | - | - |
| 1776881343 | 13.33° C | 76% | 1027.9 hPa | 0 mm | - | - | - |
| 1776877203 | 15.56° C | 60% | 1027.5 hPa | 0 mm | - | - | - |
* Rain latest hour (hover to see other rain measurements)
** Current wind speed in m/s (hover to see current wind gust speed)